Tiempo atmosférico en la estación meteorológica de Almazul, Soria (1000 m.)



Fecha
DESCASC
Temp. máxima en grados centígrados (hora)
DESCASC
Temp. mínima en grados centígrados (hora)
DESCASC
Temp. media en grados centígrados
DESCASC
Racha de viento máxima en m/sg (hora)
DESCASC
Velocidad máxima media en intervalos de 10 minutos(hora)
DESCASC
Precipitaciones diarias en mm
DESCASC
Precipitaciones de 00:00 a 06:00 en mm
DESCASC
Precipitaciones de 06:00 a 12:00 en mm
DESCASC
Precipitaciones de 12:00 a 18:00 en mm
DESCASC
Precipitaciones de 18:00 a 24:00 en mm
DESCASC
17-08-2018 22.7 (14:10) 12.5 (23:59) 17.6 15.83 (21:40) 12.22 (21:30) 0 0 0 0 0
16-08-2018 30.7 (17:40) 16.9 (07:40) 23.8 12.22 (15:10) 9.44 (18:20) 0 0 0 0 0
15-08-2018 32 (18:50) 10.2 (07:00) 21.1 10.28 (19:50) 7.22 (19:50) 0 0 0 0 0
14-08-2018 23.8 (17:10) 13.5 (07:10) 18.6 13.61 (22:20) 11.11 (22:20) 0 0 0 0 0
13-08-2018 28.4 (17:10) 13.6 (06:40) 21 12.5 (20:20) 10 (20:10) 0 0 0 0 0
12-08-2018 30.1 (18:40) 16.1 (00:00) 23.1 13.33 (14:20) 6.39 (18:10) 0.4 0 0 0.4 0
11-08-2018 32.5 (17:10) 16.9 (00:00) 24.7 9.44 (15:20) 6.67 (21:00) 0 0 0 0 0
10-08-2018 30.2 (17:50) 10 (00:00) 20.1 13.33 (00:40) 10 (00:10) 0 0 0 0 0
09-08-2018 23.4 (15:30) 13.3 (00:00) 18.3 15.56 (21:00) 12.22 (20:10) 0 0 0 0 0
08-08-2018 32.7 (17:20) 14.4 (00:00) 23.6 15 (22:40) 10.56 (22:50) 0 0 0 0 0
07-08-2018 34.9 (17:50) 18.2 (00:00) 26.6 17.22 (16:40) 10.56 (21:20) 0 0 0 0 0
06-08-2018 36.2 (17:40) 16.4 (00:00) 26.3 16.39 (20:00) 10.28 (20:00) 0 0 0 0 0
05-08-2018 34.3 (17:50) 16.2 (00:00) 25.3 10 (00:40) 7.22 (00:40) 0 0 0 0 0
04-08-2018 32.1 (17:10) 18.2 (07:10) 25.1 12.5 (21:30) 9.72 (05:50) 0 0 0 0 0
03-08-2018 34 (16:30) 14.5 (00:00) 24.3 12.5 (16:40) 8.33 (14:10) 0 0 0 0 0
02-08-2018 36.9 (17:50) 17.6 (00:00) 27.3 11.39 (18:00) 8.89 (18:40) 0 0 0 0 0
01-08-2018 34.9 (18:20) 15.2 (07:00) 25.1 10.56 (19:10) 7.78 (19:40) 0 0 0 0 0
31-07-2018 34 (17:40) 14.8 (00:00) 24.4 10.56 (20:00) 7.5 (20:00) 0 0 0 0 0
30-07-2018 33.5 (17:20) 13.2 (00:00) 23.3 8.89 (15:40) 5.28 (15:10) 0 0 0 0 0
29-07-2018 31.1 (17:10) 13.2 (00:00) 22.2 10.83 (13:40) 5.56 (14:40) 0 0 0 0 0
28-07-2018 32.8 (18:40) 15.4 (00:00) 24.1 9.72 (13:50) 7.22 (20:10) 0 0 0 0 0
27-07-2018 31.8 (16:10) 15.2 (00:00) 23.5 15.83 (14:00) 9.72 (16:40) 0 0 0 0 0
26-07-2018 34.1 (16:20) 16.7 (00:00) 25.4 10.56 (16:00) 6.94 (16:00) 0 0 0 0 0
25-07-2018 33.4 (17:30) 14.9 (00:00) 24.2 9.44 (16:00) 6.11 (16:40) 0 0 0 0 0
24-07-2018 31.6 (17:50) 16.1 (00:00) 23.9 10 (16:30) 6.94 (21:20) 0 0 0 0 0
23-07-2018 32.5 (17:00) 11.7 (00:00) 22.1 13.61 (19:10) 6.11 (19:40) 0 0 0 0 0
22-07-2018 27.2 (16:50) 11.6 (00:00) 19.4 9.72 (21:40) 7.5 (21:40) 0 0 0 0 0
21-07-2018 22 (14:00) 11 (07:10) 16.5 8.89 (00:10) 6.67 (00:10) 0 0 0 0 0
20-07-2018 28.5 (16:10) 14 (00:00) 21.3 17.78 (18:30) 13.33 (18:30) 0.6 0 0 0 0.6

Gráficas

Temp. máximas Temp. mínimas Temp. medias Precipitaciones Rachas de viento máximas Velocidades máximas media en intervalos de 10 minutos

Datos horarios

Fecha y hora oficial Temperatura (ºC) Velocidad del viento (km/h) Dirección del viento Racha (km/h) Dirección de racha Precipitación (mm) Presión (hPa) Tendencia (hPa) Humedad (%)
2018-08-18 23:00:00 15.6 21 Nordeste 35 Nordeste 0 -- -- 64
2018-08-18 22:00:00 17.6 25 Nordeste 32 Nordeste 0 -- -- 52
2018-08-18 21:00:00 19 23 Nordeste 34 Nordeste 0 -- -- 46
2018-08-18 20:00:00 21.8 24 Nordeste 33 Nordeste 0 -- -- 36
2018-08-18 19:00:00 22.8 26 Nordeste 35 Nordeste 0 -- -- 34
2018-08-18 18:00:00 23.4 26 Nordeste 34 Nordeste 0 -- -- 34
2018-08-18 17:00:00 23.8 17 Nordeste 30 Nordeste 0 -- -- 33
2018-08-18 16:00:00 23.3 13 Norte 26 Norte 0 -- -- 34
2018-08-18 15:00:00 22.1 12 Norte 34 Norte 0 -- -- 35
2018-08-18 14:00:00 20.7 14 Nordeste 26 Nordeste 0 -- -- 39
2018-08-18 13:00:00 20 9 Este 21 Este 0 -- -- 40
2018-08-18 12:00:00 18.1 8 Nordeste 23 Nordeste 0 -- -- 46
2018-08-18 11:00:00 15.7 14 Nordeste 25 Nordeste 0 -- -- 54
2018-08-18 10:00:00 13.9 19 Nordeste 31 Nordeste 0 -- -- 59
2018-08-18 09:00:00 12 18 Nordeste 27 Nordeste 0 -- -- 65
2018-08-18 08:00:00 9.6 10 Nordeste 35 Nordeste 0 -- -- 77
2018-08-18 07:00:00 9.4 28 Nordeste 35 Nordeste 0 -- -- 79
2018-08-18 06:00:00 9.7 24 Nordeste 35 Nordeste 0 -- -- 78
2018-08-18 05:00:00 10 28 Nordeste 39 Nordeste 0 -- -- 77
2018-08-18 04:00:00 10.6 30 Nordeste 45 Nordeste 0 -- -- 74
2018-08-18 03:00:00 11.3 32 Nordeste 42 Nordeste 0 -- -- 75
2018-08-18 02:00:00 11.7 33 Nordeste 47 Nordeste 0 -- -- 74
2018-08-18 01:00:00 12.1 34 Nordeste 46 Nordeste 0 -- -- 76
2018-08-18 00:00:00 12.5 37 Nordeste 53 Nordeste 0 -- -- 75
2018-08-17 23:00:00 13.1 39 Nordeste 51 Nordeste 0 -- -- 78
2018-08-17 22:00:00 13.8 37 Nordeste 57 Norte 0 -- -- 76
2018-08-17 21:00:00 14.8 42 Nordeste 52 Nordeste 0 -- -- 75
2018-08-17 20:00:00 17.8 40 Nordeste 50 Nordeste 0 -- -- 65
2018-08-17 19:00:00 20.2 34 Nordeste 48 Nordeste 0 -- -- 56
2018-08-17 18:00:00 21.3 35 Nordeste 50 Norte 0 -- -- 53
2018-08-17 17:00:00 22 32 Nordeste 47 Nordeste 0 -- -- 51
2018-08-17 16:00:00 21.3 31 Nordeste 50 Nordeste 0 -- -- 53
2018-08-17 15:00:00 21.8 30 Nordeste 41 Nordeste 0 -- -- 53
2018-08-17 14:00:00 21.5 28 Nordeste 42 Nordeste 0 -- -- 53
2018-08-17 13:00:00 22 26 Este 38 Nordeste 0 -- -- 53
2018-08-17 12:00:00 20.8 28 Nordeste 36 Nordeste 0 -- -- 53
2018-08-17 11:00:00 19.5 28 Nordeste 39 Nordeste 0 -- -- 56
2018-08-17 10:00:00 18.3 24 Nordeste 35 Nordeste 0 -- -- 63
2018-08-17 09:00:00 15.3 26 Nordeste 33 Nordeste 0 -- -- 78
2018-08-17 08:00:00 14.6 15 Nordeste 22 Nordeste 0 -- -- 83
2018-08-17 07:00:00 14.5 18 Nordeste 31 Nordeste 0 -- -- 83
2018-08-17 06:00:00 15 9 Nordeste 21 Nordeste 0 -- -- 82
2018-08-17 05:00:00 14.8 10 Nordeste 23 Este 0 -- -- 85
2018-08-17 04:00:00 15.8 15 Este 22 Este 0 -- -- 81
2018-08-17 03:00:00 16 17 Nordeste 34 Nordeste 0 -- -- 81
2018-08-17 02:00:00 16.9 26 Nordeste 31 Nordeste 0 -- -- 78
2018-08-17 01:00:00 17.7 17 Nordeste 26 Nordeste 0 -- -- 75
2018-08-17 00:00:00 18.7 14 Nordeste 23 Nordeste 0 -- -- 74
2018-08-16 23:00:00 18.7 17 Este 38 Nordeste 0 -- -- 74
2018-08-16 22:00:00 19.6 29 Nordeste 42 Nordeste 0 -- -- 71
2018-08-16 21:00:00 20.5 31 Nordeste 41 Nordeste 0 -- -- 69
2018-08-16 20:00:00 24.3 23 Este 34 Este 0 -- -- 57
2018-08-16 19:00:00 24.6 21 Este 42 Nordeste 0 -- -- 47
2018-08-16 18:00:00 29 16 Norte 30 Noroeste 0 -- -- 36
2018-08-16 17:00:00 28.1 13 Nordeste 32 Norte 0 -- -- 36
2018-08-16 16:00:00 29.3 6 Sudoeste 44 Oeste 0 -- -- 36
2018-08-16 15:00:00 28.8 19 Sudoeste 30 Sudoeste 0 -- -- 36
2018-08-16 14:00:00 27 19 Sudoeste 39 Sudoeste 0 -- -- 41
2018-08-16 13:00:00 26.1 22 Sudoeste 39 Sudoeste 0 -- -- 44
2018-08-16 12:00:00 25.3 22 Sudoeste 31 Sudoeste 0 -- -- 48
2018-08-16 11:00:00 21.8 13 Sudoeste 23 Sudoeste 0 -- -- 64
2018-08-16 10:00:00 23.3 11 Sur 17 Sur 0 -- -- 61
2018-08-16 09:00:00 21.8 3 Sur 5 Norte 0 -- -- 61
2018-08-16 08:00:00 17 2 Noroeste 4 Sudeste 0 -- -- 72
2018-08-16 07:00:00 17.5 4 Sudeste 13 Este 0 -- -- 73
2018-08-16 06:00:00 18.6 8 Sudeste 15 Sudeste 0 -- -- 69
2018-08-16 05:00:00 17.9 3 Este 9 Sudeste 0 -- -- 64
2018-08-16 04:00:00 19.6 10 Sudeste 18 Sudeste 0 -- -- 58
2018-08-16 03:00:00 19.7 10 Sudeste 20 Sudeste 0 -- -- 50
2018-08-16 02:00:00 20.7 11 Sudeste 15 Sudeste 0 -- -- 46
2018-08-16 01:00:00 19.2 2 Nordeste 8 Norte 0 -- -- 50
2018-08-16 00:00:00 20.1 3 Este 12 Nordeste 0 -- -- 49
2018-08-15 23:00:00 20.2 9 Norte 21 Este 0 -- -- 49
2018-08-15 22:00:00 21.7 18 Este 27 Este 0 -- -- 47
2018-08-15 21:00:00 23.5 15 Sudeste 33 Sudeste 0 -- -- 43
2018-08-15 20:00:00 26.2 26 Sudeste 37 Sudeste 0 -- -- 41
2018-08-15 19:00:00 31 8 Sudeste 22 Norte 0 -- -- 33
2018-08-15 18:00:00 31.5 10 Noroeste 30 Noroeste 0 -- -- 26
2018-08-15 17:00:00 30.4 9 Noroeste 22 Sudoeste 0 -- -- 25
2018-08-15 16:00:00 30.9 7 Sudoeste 15 Norte 0 -- -- 29
2018-08-15 15:00:00 29 9 Sur 23 Sudoeste 0 -- -- 38
2018-08-15 14:00:00 26.8 9 Sur 23 Sur 0 -- -- 48
2018-08-15 13:00:00 25.2 4 Sudoeste 13 Sur 0 -- -- 42
2018-08-15 12:00:00 24.5 6 Sudoeste 11 Sur 0 -- -- 40
2018-08-15 11:00:00 22.4 4 Sur 11 Sudoeste 0 -- -- 48
2018-08-15 10:00:00 20.5 3 Sudoeste 9 Nordeste 0 -- -- 52
2018-08-15 09:00:00 15.3 10 Nordeste 15 Nordeste 0 -- -- 67
2018-08-15 08:00:00 12.1 11 Nordeste 17 Este 0 -- -- 78
2018-08-15 07:00:00 10.2 15 Este 17 Este 0 -- -- 85
2018-08-15 06:00:00 10.7 14 Nordeste 16 Este 0 -- -- 82
2018-08-15 05:00:00 11.7 9 Nordeste 15 Este 0 -- -- 79
2018-08-15 04:00:00 10.7 7 Nordeste 12 Nordeste 0 -- -- 84
2018-08-15 03:00:00 11.6 9 Norte 13 Norte 0 -- -- 82
2018-08-15 02:00:00 12.4 5 Norte 18 Norte 0 -- -- 81
2018-08-15 01:00:00 13.7 10 Norte 33 Nordeste 0 -- -- 76
2018-08-15 00:00:00 14.7 25 Nordeste 44 Nordeste 0 -- -- 72
2018-08-14 23:00:00 15.4 28 Nordeste 49 Nordeste 0 -- -- 70
2018-08-14 22:00:00 16.5 35 Nordeste 46 Nordeste 0 -- -- 67
2018-08-14 21:00:00 18.6 30 Nordeste 39 Nordeste 0 -- -- 59
2018-08-14 20:00:00 21.5 28 Nordeste 41 Nordeste 0 -- -- 48
2018-08-14 19:00:00 23 30 Nordeste 42 Nordeste 0 -- -- 43
2018-08-14 18:00:00 23.4 30 Nordeste 41 Nordeste 0 -- -- 41
2018-08-14 17:00:00 23.7 28 Nordeste 41 Nordeste 0 -- -- 42
2018-08-14 16:00:00 23 27 Nordeste 39 Nordeste 0 -- -- 43
2018-08-14 15:00:00 22.6 23 Nordeste 38 Nordeste 0 -- -- 45
2018-08-14 14:00:00 21.5 24 Nordeste 39 Nordeste 0 -- -- 46
2018-08-14 13:00:00 20.3 26 Nordeste 42 Nordeste 0 -- -- 50
2018-08-14 12:00:00 19.1 27 Nordeste 39 Nordeste 0 -- -- 51
2018-08-14 11:00:00 18.4 23 Nordeste 37 Nordeste 0 -- -- 56
2018-08-14 10:00:00 17 29 Nordeste 36 Nordeste 0 -- -- 60
2018-08-14 09:00:00 15.8 24 Nordeste 35 Nordeste 0 -- -- 66
2018-08-14 08:00:00 14.3 23 Nordeste 32 Nordeste 0 -- -- 73
2018-08-14 07:00:00 13.6 19 Nordeste 30 Nordeste 0 -- -- 83
2018-08-14 06:00:00 13.9 22 Nordeste 30 Nordeste 0 -- -- 82
2018-08-14 05:00:00 14 21 Nordeste 32 Nordeste 0 -- -- 82
2018-08-14 04:00:00 14.5 26 Nordeste 39 Nordeste 0 -- -- 80
2018-08-14 03:00:00 14.6 26 Nordeste 37 Nordeste 0 -- -- 80
2018-08-14 02:00:00 15.1 30 Nordeste 43 Nordeste 0 -- -- 79
2018-08-14 01:00:00 15.7 33 Nordeste 41 Nordeste 0 -- -- 76
2018-08-14 00:00:00 15.9 30 Nordeste 45 Nordeste 0 -- -- 74
2018-08-13 23:00:00 16.6 31 Nordeste 41 Nordeste 0 -- -- 72
2018-08-13 22:00:00 17.9 26 Nordeste 39 Nordeste 0 -- -- 69
2018-08-13 21:00:00 20 30 Nordeste 45 Nordeste 0 -- -- 62
2018-08-13 20:00:00 23.4 35 Nordeste 43 Nordeste 0 -- -- 54
2018-08-13 19:00:00 26.7 24 Nordeste 35 Nordeste 0 -- -- 45
2018-08-13 18:00:00 28.1 21 Norte 39 Noroeste 0 -- -- 31
2018-08-13 17:00:00 28.2 21 Noroeste 37 Noroeste 0 -- -- 34
2018-08-13 16:00:00 27.7 22 Noroeste 41 Noroeste 0 -- -- 31
2018-08-13 15:00:00 27.1 17 Noroeste 32 Noroeste 0 -- -- 39
2018-08-13 14:00:00 26.4 17 Oeste 35 Oeste 0 -- -- 42
2018-08-13 13:00:00 25 11 Oeste 21 Norte 0 -- -- 46
2018-08-13 12:00:00 23.8 13 Noroeste 20 Noroeste 0 -- -- 49
2018-08-13 11:00:00 22.4 12 Noroeste 23 Noroeste 0 -- -- 52
2018-08-13 10:00:00 20.8 10 Noroeste 21 Noroeste 0 -- -- 54
2018-08-13 09:00:00 20.9 2 Sudoeste 6 Sudeste 0 -- -- 52
2018-08-13 08:00:00 16.7 3 Norte 6 Norte 0 -- -- 68
2018-08-13 07:00:00 14.8 6 Sur 13 Noroeste 0 -- -- 84
2018-08-13 06:00:00 14.4 2 Sur 6 Sur 0 -- -- 88
2018-08-13 05:00:00 15.2 0 Calma 6 Noroeste 0 -- -- 83
2018-08-13 04:00:00 15.4 5 Noroeste 8 Sur 0 -- -- 87
2018-08-13 03:00:00 16.1 6 Sur 11 Sur 0 -- -- 88
2018-08-13 02:00:00 18 12 Sudeste 19 Este 0 -- -- 77
2018-08-13 01:00:00 18.6 13 Este 17 Este 0 -- -- 74
2018-08-13 00:00:00 18.8 4 Este 19 Sudeste 0 -- -- 75
2018-08-12 23:00:00 19.7 8 Sudeste 22 Sudeste 0 -- -- 72
2018-08-12 22:00:00 20.9 9 Sur 25 Sur 0 -- -- 64
2018-08-12 21:00:00 22.5 18 Sur 31 Sudeste 0 -- -- 60
2018-08-12 20:00:00 24.6 23 Sudeste 34 Sudeste 0 -- -- 56
2018-08-12 19:00:00 29.6 22 Oeste 37 Oeste 0 -- -- 36
2018-08-12 18:00:00 29.7 23 Noroeste 35 Noroeste 0 -- -- 33
2018-08-12 17:00:00 27.9 18 Noroeste 28 Noroeste 0 -- -- 42
2018-08-12 16:00:00 24 5 Nordeste 19 Sudeste 0 -- -- 63
2018-08-12 15:00:00 21.2 3 Nordeste 48 Sudoeste 0.4 -- -- 73
2018-08-12 14:00:00 26.3 15 Norte 30 Noroeste 0 -- -- 46
2018-08-12 13:00:00 28.9 13 Oeste 26 Noroeste 0 -- -- 44
2018-08-12 12:00:00 28.9 4 Este 19 Sudoeste 0 -- -- 49
2018-08-12 11:00:00 26.9 12 Sudoeste 22 Sudoeste 0 -- -- 55
2018-08-12 10:00:00 25 5 Sur 12 Sur 0 -- -- 60
2018-08-12 09:00:00 24.2 2 Oeste 7 Nordeste 0 -- -- 62
2018-08-12 08:00:00 17.6 5 Nordeste 9 Norte 0 -- -- 83
2018-08-12 07:00:00 17.2 0 Calma 7 Nordeste 0 -- -- 81
2018-08-12 06:00:00 17 0 Calma 5 Sudeste 0 -- -- 84
2018-08-12 05:00:00 17.6 0 Calma 7 Sudeste 0 -- -- 81
2018-08-12 04:00:00 18.1 2 Este 8 Este 0 -- -- 79
2018-08-12 03:00:00 18.2 5 Sudoeste 8 Sur 0 -- -- 75
2018-08-12 02:00:00 20.3 0 Calma 16 Sudeste 0 -- -- 67
2018-08-12 01:00:00 21.4 15 Sudeste 18 Sudeste 0 -- -- 65
2018-08-12 00:00:00 22.5 13 Sudeste 18 Sudeste 0 -- -- 62
2018-08-11 23:00:00 23.3 8 Sur 25 Sudeste 0 -- -- 59
2018-08-11 22:00:00 23.6 18 Sudeste 32 Sudeste 0 -- -- 58
2018-08-11 21:00:00 25.6 24 Sudeste 32 Sudeste 0 -- -- 53
2018-08-11 20:00:00 31.6 5 Oeste 24 Oeste 0 -- -- 36
2018-08-11 19:00:00 31.7 14 Oeste 31 Oeste 0 -- -- 25
2018-08-11 18:00:00 31.2 16 Oeste 30 Oeste 0 -- -- 27
2018-08-11 17:00:00 31.8 13 Sudoeste 23 Sudoeste 0 -- -- 31
2018-08-11 16:00:00 29.4 15 Sur 34 Sur 0 -- -- 37
2018-08-11 15:00:00 30.3 13 Sudoeste 22 Sudoeste 0 -- -- 36
2018-08-11 14:00:00 28.8 11 Sur 25 Sur 0 -- -- 43
2018-08-11 13:00:00 26.6 15 Sur 27 Sudoeste 0 -- -- 51
2018-08-11 12:00:00 25.7 15 Sudoeste 27 Sudoeste 0 -- -- 55
2018-08-11 11:00:00 23.8 15 Sur 24 Sudoeste 0 -- -- 61
2018-08-11 10:00:00 22.5 10 Sur 15 Norte 0 -- -- 63
2018-08-11 09:00:00 21.9 2 Sur 5 Sur 0 -- -- 66
2018-08-11 08:00:00 17.7 2 Sur 4 Norte 0 -- -- 80
2018-08-11 07:00:00 17.4 2 Sur 21 Sur 0 -- -- 79
2018-08-11 06:00:00 18 9 Sur 18 Sudeste 0 -- -- 75
2018-08-11 05:00:00 18.1 8 Sudeste 12 Sudeste 0 -- -- 73
2018-08-11 04:00:00 18.4 6 Este 13 Este 0 -- -- 72
2018-08-11 03:00:00 17.4 5 Norte 9 Norte 0 -- -- 73
2018-08-11 02:00:00 17.3 6 Norte 10 Norte 0 -- -- 72
2018-08-11 01:00:00 18.2 6 Nordeste 25 Este 0 -- -- 63
2018-08-11 00:00:00 19.7 18 Este 27 Este 0 -- -- 59
2018-08-10 23:00:00 20 18 Este 27 Este 0 -- -- 57
2018-08-10 22:00:00 20.9 20 Este 31 Este 0 -- -- 54
2018-08-10 21:00:00 22.3 20 Este 35 Sudeste 0 -- -- 49
2018-08-10 20:00:00 24.5 23 Sudeste 39 Sudeste 0 -- -- 44
2018-08-10 19:00:00 25.6 22 Sudeste 35 Sur 0 -- -- 42
2018-08-10 18:00:00 28.7 11 Sur 31 Sudeste 0 -- -- 37
2018-08-10 17:00:00 29.2 11 Sur 26 Sudoeste 0 -- -- 34
2018-08-10 16:00:00 28.7 9 Sudoeste 29 Sudoeste 0 -- -- 36
2018-08-10 15:00:00 26.7 9 Sur 23 Sudoeste 0 -- -- 41
2018-08-10 14:00:00 25 9 Sur 21 Sur 0 -- -- 44
2018-08-10 13:00:00 23.6 13 Sur 25 Sur 0 -- -- 44
2018-08-10 12:00:00 21.2 14 Sur 26 Este 0 -- -- 47
2018-08-10 11:00:00 20.6 8 Sudeste 14 Sudeste 0 -- -- 48
2018-08-10 10:00:00 18 8 Sur 12 Sur 0 -- -- 55
2018-08-10 09:00:00 17.1 2 Sur 8 Este 0 -- -- 57
2018-08-10 08:00:00 11.8 4 Nordeste 9 Norte 0 -- -- 74
2018-08-10 07:00:00 10.3 2 Nordeste 10 Nordeste 0 -- -- 79
2018-08-10 06:00:00 10.5 3 Nordeste 13 Nordeste 0 -- -- 78
2018-08-10 05:00:00 11.7 13 Nordeste 20 Nordeste 0 -- -- 74
2018-08-10 04:00:00 11.8 3 Nordeste 39 Nordeste 0 -- -- 73
2018-08-10 03:00:00 12.3 30 Nordeste 41 Nordeste 0 -- -- 72
2018-08-10 02:00:00 12.5 27 Nordeste 44 Nordeste 0 -- -- 72
2018-08-10 01:00:00 12.8 32 Nordeste 48 Nordeste 0 -- -- 72
2018-08-10 00:00:00 13.3 40 Nordeste 51 Nordeste 0 -- -- 72
2018-08-09 23:00:00 14.1 42 Nordeste 54 Nordeste 0 -- -- 68
2018-08-09 22:00:00 15 39 Nordeste 53 Nordeste 0 -- -- 66
2018-08-09 21:00:00 16.5 40 Nordeste 56 Nordeste 0 -- -- 61
2018-08-09 20:00:00 19.5 40 Nordeste 54 Nordeste 0 -- -- 52
2018-08-09 19:00:00 20.5 41 Nordeste 53 Nordeste 0 -- -- 49
2018-08-09 18:00:00 21.7 38 Nordeste 52 Nordeste 0 -- -- 47
2018-08-09 17:00:00 22.6 36 Nordeste 47 Nordeste 0 -- -- 46
2018-08-09 16:00:00 23 29 Nordeste 41 Nordeste 0 -- -- 45
2018-08-09 15:00:00 23 24 Nordeste 39 Norte 0 -- -- 47
2018-08-09 14:00:00 22.6 21 Nordeste 33 Nordeste 0 -- -- 49
2018-08-09 13:00:00 21.7 21 Nordeste 32 Nordeste 0 -- -- 53
2018-08-09 12:00:00 20.9 20 Nordeste 31 Nordeste 0 -- -- 58
2018-08-09 11:00:00 20.8 16 Nordeste 24 Nordeste 0 -- -- 59
2018-08-09 10:00:00 19.1 15 Norte 24 Noroeste 0 -- -- 65
2018-08-09 09:00:00 17.3 17 Noroeste 25 Noroeste 0 -- -- 66
2018-08-09 08:00:00 16 7 Norte 20 Noroeste 0 -- -- 59
2018-08-09 07:00:00 16.3 8 Norte 18 Noroeste 0 -- -- 57
2018-08-09 06:00:00 16.9 4 Este 26 Oeste 0 -- -- 53
2018-08-09 05:00:00 17.6 3 Oeste 15 Sudoeste 0 -- -- 67
2018-08-09 04:00:00 18.4 12 Sudoeste 17 Oeste 0 -- -- 64
2018-08-09 03:00:00 19 10 Sudoeste 24 Sudoeste 0 -- -- 59
2018-08-09 02:00:00 20.5 20 Sur 27 Sur 0 -- -- 54
2018-08-09 01:00:00 21.4 21 Sur 35 Sudoeste 0 -- -- 52
2018-08-09 00:00:00 22.9 26 Sudoeste 44 Sudoeste 0 -- -- 50
2018-08-08 23:00:00 24.3 34 Sudoeste 54 Sudoeste 0 -- -- 46
2018-08-08 22:00:00 25.9 12 Sudoeste 27 Oeste 0 -- -- 26
2018-08-08 21:00:00 28.4 20 Oeste 38 Oeste 0 -- -- 23
2018-08-08 20:00:00 30.5 21 Oeste 39 Sudoeste 0 -- -- 21
2018-08-08 19:00:00 31.4 28 Oeste 43 Oeste 0 -- -- 20
2018-08-08 18:00:00 32.1 24 Sudoeste 48 Oeste 0 -- -- 21
2018-08-08 17:00:00 32.2 28 Sudoeste 51 Sudoeste 0 -- -- 24
2018-08-08 16:00:00 31.2 24 Sudoeste 41 Sur 0 -- -- 27
2018-08-08 15:00:00 29.5 18 Sudoeste 38 Sudoeste 0 -- -- 31
2018-08-08 14:00:00 28.1 27 Sudoeste 42 Sudoeste 0 -- -- 35
2018-08-08 13:00:00 26.7 18 Sur 32 Sur 0 -- -- 38
2018-08-08 12:00:00 25.8 11 Sur 24 Sudoeste 0 -- -- 44
2018-08-08 11:00:00 23.4 15 Sur 23 Sur 0 -- -- 52
2018-08-08 10:00:00 21.6 7 Sudeste 16 Sudeste 0 -- -- 62
2018-08-08 09:00:00 18.8 10 Sudeste 14 Sudeste 0 -- -- 75
2018-08-08 08:00:00 16.3 9 Sur 22 Sur 0 -- -- 83
2018-08-08 07:00:00 15.6 11 Sudeste 16 Sudeste 0 -- -- 87
2018-08-08 06:00:00 14.6 4 Este 8 Sudeste 0 -- -- 89
2018-08-08 05:00:00 14.5 8 Este 12 Nordeste 0 -- -- 88
2018-08-08 04:00:00 14.9 9 Nordeste 12 Nordeste 0 -- -- 85
2018-08-08 03:00:00 15.6 8 Nordeste 12 Norte 0 -- -- 82
2018-08-08 02:00:00 16.5 5 Norte 19 Nordeste 0 -- -- 77
2018-08-08 01:00:00 17.2 18 Nordeste 31 Nordeste 0 -- -- 74
2018-08-08 00:00:00 18.3 24 Nordeste 35 Nordeste 0 -- -- 71
2018-08-07 23:00:00 18.6 32 Nordeste 41 Nordeste 0 -- -- 72
2018-08-07 22:00:00 19.5 25 Nordeste 48 Nordeste 0 -- -- 69
2018-08-07 21:00:00 21.3 33 Nordeste 44 Nordeste 0 -- -- 65
2018-08-07 20:00:00 25.5 31 Nordeste 56 Nordeste 0 -- -- 52
2018-08-07 19:00:00 33 16 Noroeste 38 Noroeste 0 -- -- 24
2018-08-07 18:00:00 34.3 26 Oeste 58 Sudoeste 0 -- -- 20
2018-08-07 17:00:00 34.7 33 Oeste 62 Oeste 0 -- -- 16
2018-08-07 16:00:00 34.8 28 Oeste 44 Sudoeste 0 -- -- 17
2018-08-07 15:00:00 34.2 13 Sudoeste 33 Sudoeste 0 -- -- 25
2018-08-07 14:00:00 31.8 17 Sudoeste 30 Sur 0 -- -- 29
2018-08-07 13:00:00 30.4 18 Sudoeste 30 Sudoeste 0 -- -- 31
2018-08-07 12:00:00 27.7 17 Sudoeste 28 Sudoeste 0 -- -- 35
2018-08-07 11:00:00 27 21 Sudoeste 27 Sudoeste 0 -- -- 35
2018-08-07 10:00:00 24.7 15 Sur 18 Sur 0 -- -- 43
2018-08-07 09:00:00 21.2 12 Sur 16 Sur 0 -- -- 55
2018-08-07 08:00:00 20 3 Sudeste 12 Sur 0 -- -- 50
2018-08-07 07:00:00 19.7 6 Sudeste 12 Sudeste 0 -- -- 47
2018-08-07 06:00:00 20.3 0 Calma 6 Sudeste 0 -- -- 46
2018-08-07 05:00:00 20.4 5 Sudeste 14 Sudeste 0 -- -- 45
2018-08-07 04:00:00 20 4 Sudoeste 21 Este 0 -- -- 44
2018-08-07 03:00:00 21.2 15 Este 23 Noroeste 0 -- -- 40
2018-08-07 02:00:00 23.9 12 Norte 40 Noroeste 0 -- -- 33
2018-08-07 01:00:00 25.3 4 Sur 18 Sudeste 0 -- -- 34
2018-08-07 00:00:00 25.2 9 Este 13 Sudeste 0 -- -- 31
2018-08-06 23:00:00 25.8 10 Sur 22 Sudeste 0 -- -- 28
2018-08-06 22:00:00 28 7 Sur 31 Oeste 0 -- -- 24
2018-08-06 21:00:00 30 17 Sudoeste 57 Oeste 0 -- -- 22
2018-08-06 20:00:00 30.3 37 Oeste 59 Noroeste 0 -- -- 20
2018-08-06 19:00:00 32.3 9 Noroeste 19 Noroeste 0 -- -- 25
2018-08-06 18:00:00 36.1 9 Noroeste 26 Noroeste 0 -- -- 21
2018-08-06 17:00:00 35.4 8 Noroeste 23 Noroeste 0 -- -- 21
2018-08-06 16:00:00 34.3 8 Norte 23 Norte 0 -- -- 23
2018-08-06 15:00:00 33.5 7 Oeste 28 Norte 0 -- -- 24
2018-08-06 14:00:00 32.8 8 Oeste 21 Noroeste 0 -- -- 23
2018-08-06 13:00:00 30.7 11 Norte 21 Noroeste 0 -- -- 30
2018-08-06 12:00:00 30.8 5 Norte 14 Sudoeste 0 -- -- 36
2018-08-06 11:00:00 29.5 8 Sudoeste 14 Oeste 0 -- -- 40
2018-08-06 10:00:00 24.8 9 Sur 13 Sur 0 -- -- 51
2018-08-06 09:00:00 22.8 4 Sur 6 Norte 0 -- -- 59
2018-08-06 08:00:00 18.5 5 Nordeste 12 Nordeste 0 -- -- 73
2018-08-06 07:00:00 16.8 8 Norte 13 Nordeste 0 -- -- 79
2018-08-06 06:00:00 17.4 9 Nordeste 13 Nordeste 0 -- -- 76
2018-08-06 05:00:00 18.7 5 Nordeste 8 Norte 0 -- -- 73
2018-08-06 04:00:00 19 0 Calma 9 Norte 0 -- -- 73
2018-08-06 03:00:00 19.6 9 Norte 13 Norte 0 -- -- 71
2018-08-06 02:00:00 20.3 4 Nordeste 10 Norte 0 -- -- 70
2018-08-06 01:00:00 21.3 10 Nordeste 12 Nordeste 0 -- -- 65
2018-08-06 00:00:00 22.1 5 Norte 13 Norte 0 -- -- 62
2018-08-05 23:00:00 23 6 Norte 16 Nordeste 0 -- -- 48
2018-08-05 22:00:00 25.9 12 Nordeste 30 Nordeste 0 -- -- 38
2018-08-05 21:00:00 28.6 18 Nordeste 26 Nordeste 0 -- -- 37
2018-08-05 20:00:00 31.9 16 Nordeste 27 Nordeste 0 -- -- 31
2018-08-05 19:00:00 33.7 15 Norte 27 Nordeste 0 -- -- 21
2018-08-05 18:00:00 34.1 14 Norte 28 Norte 0 -- -- 21
2018-08-05 17:00:00 33.6 11 Norte 24 Norte 0 -- -- 21
2018-08-05 16:00:00 32.6 16 Norte 26 Norte 0 -- -- 24
2018-08-05 15:00:00 31.9 11 Norte 23 Norte 0 -- -- 29
2018-08-05 14:00:00 30.4 9 Norte 21 Norte 0 -- -- 30
2018-08-05 13:00:00 29.7 6 Nordeste 18 Norte 0 -- -- 31
2018-08-05 12:00:00 28.9 6 Nordeste 18 Nordeste 0 -- -- 33
2018-08-05 11:00:00 26.8 13 Nordeste 19 Nordeste 0 -- -- 37
2018-08-05 10:00:00 24.4 12 Nordeste 20 Nordeste 0 -- -- 46
2018-08-05 09:00:00 21.4 16 Nordeste 21 Nordeste 0 -- -- 54
2018-08-05 08:00:00 17.9 15 Norte 20 Nordeste 0 -- -- 64
2018-08-05 07:00:00 16.3 10 Norte 19 Nordeste 0 -- -- 68
2018-08-05 06:00:00 17.8 12 Norte 27 Nordeste 0 -- -- 63
2018-08-05 05:00:00 19.1 23 Nordeste 28 Nordeste 0 -- -- 58
2018-08-05 04:00:00 19.3 16 Nordeste 23 Norte 0 -- -- 57
2018-08-05 03:00:00 19.9 19 Nordeste 25 Nordeste 0 -- -- 56
2018-08-05 02:00:00 20.6 15 Norte 31 Nordeste 0 -- -- 53
2018-08-05 01:00:00 21.2 20 Nordeste 36 Nordeste 0 -- -- 52
2018-08-05 00:00:00 22 24 Nordeste 32 Norte 0 -- -- 50
2018-08-04 23:00:00 22.6 20 Nordeste 42 Nordeste 0 -- -- 49
2018-08-04 22:00:00 24.1 31 Nordeste 45 Nordeste 0 -- -- 46
2018-08-04 21:00:00 26.6 29 Nordeste 41 Nordeste 0 -- -- 40
2018-08-04 20:00:00 29.7 27 Nordeste 40 Nordeste 0 -- -- 34
2018-08-04 19:00:00 30.5 27 Nordeste 40 Nordeste 0 -- -- 32
2018-08-04 18:00:00 31.6 25 Nordeste 35 Nordeste 0 -- -- 28
2018-08-04 17:00:00 32 19 Nordeste 38 Norte 0 -- -- 25
2018-08-04 16:00:00 31.6 22 Nordeste 34 Nordeste 0 -- -- 26
2018-08-04 15:00:00 30.7 23 Nordeste 39 Norte 0 -- -- 26
2018-08-04 14:00:00 29.8 21 Nordeste 34 Nordeste 0 -- -- 30
2018-08-04 13:00:00 28.6 20 Nordeste 30 Norte 0 -- -- 39
2018-08-04 12:00:00 27.5 22 Nordeste 30 Nordeste 0 -- -- 43
2018-08-04 11:00:00 25.9 23 Nordeste 31 Nordeste 0 -- -- 46
2018-08-04 10:00:00 24.2 22 Nordeste 36 Nordeste 0 -- -- 50
2018-08-04 09:00:00 22.3 28 Nordeste 33 Nordeste 0 -- -- 54
2018-08-04 08:00:00 19.9 20 Nordeste 26 Nordeste 0 -- -- 62
2018-08-04 07:00:00 18.4 12 Nordeste 40 Nordeste 0 -- -- 68
2018-08-04 06:00:00 19.2 31 Nordeste 43 Nordeste 0 -- -- 65
2018-08-04 05:00:00 19.2 25 Norte 37 Nordeste 0 -- -- 63
2018-08-04 04:00:00 20 23 Nordeste 35 Norte 0 -- -- 58
2018-08-04 03:00:00 20.8 23 Nordeste 37 Norte 0 -- -- 51
2018-08-04 02:00:00 21.2 31 Nordeste 37 Norte 0 -- -- 49
2018-08-04 01:00:00 21.8 24 Norte 38 Nordeste 0 -- -- 47
2018-08-04 00:00:00 21.9 17 Norte 32 Nordeste 0 -- -- 52
2018-08-03 23:00:00 24.4 26 Nordeste 39 Nordeste 0 -- -- 40
2018-08-03 22:00:00 26.1 24 Nordeste 34 Nordeste 0 -- -- 36
2018-08-03 21:00:00 29.4 27 Nordeste 38 Nordeste 0 -- -- 29
2018-08-03 20:00:00 31.7 25 Nordeste 44 Nordeste 0 -- -- 28
2018-08-03 19:00:00 33.1 24 Nordeste 42 Norte 0 -- -- 26
2018-08-03 18:00:00 33.9 20 Norte 42 Norte 0 -- -- 17
2018-08-03 17:00:00 33.8 26 Nordeste 45 Nordeste 0 -- -- 18
2018-08-03 16:00:00 33.5 28 Nordeste 41 Nordeste 0 -- -- 18
2018-08-03 15:00:00 33.3 28 Nordeste 44 Nordeste 0 -- -- 17
2018-08-03 14:00:00 32.7 29 Nordeste 42 Nordeste 0 -- -- 17
2018-08-03 13:00:00 32.1 25 Nordeste 37 Nordeste 0 -- -- 18
2018-08-03 12:00:00 30.9 17 Nordeste 29 Nordeste 0 -- -- 25
2018-08-03 11:00:00 28.9 19 Nordeste 28 Nordeste 0 -- -- 29
2018-08-03 10:00:00 25.8 8 Nordeste 15 Nordeste 0 -- -- 40
2018-08-03 09:00:00 21.3 6 Norte 12 Norte 0 -- -- 57
2018-08-03 08:00:00 17.2 6 Nordeste 15 Nordeste 0 -- -- 68
2018-08-03 07:00:00 15.5 12 Norte 15 Norte 0 -- -- 73
2018-08-03 06:00:00 17.1 8 Nordeste 15 Nordeste 0 -- -- 68
2018-08-03 05:00:00 17.2 10 Norte 13 Norte 0 -- -- 69
2018-08-03 04:00:00 17.5 3 Noroeste 13 Nordeste 0 -- -- 66
2018-08-03 03:00:00 18.6 7 Nordeste 12 Norte 0 -- -- 63
2018-08-03 02:00:00 18.9 6 Norte 10 Norte 0 -- -- 61
2018-08-03 01:00:00 21 0 Calma 8 Este 0 -- -- 55
2018-08-03 00:00:00 22.6 7 Este 9 Este 0 -- -- 51
2018-08-02 23:00:00 24.5 8 Nordeste 18 Nordeste 0 -- -- 47
2018-08-02 22:00:00 27.2 14 Nordeste 21 Nordeste 0 -- -- 42
2018-08-02 21:00:00 29.2 17 Nordeste 30 Nordeste 0 -- -- 41
2018-08-02 20:00:00 31.5 23 Nordeste 33 Nordeste 0 -- -- 37
2018-08-02 19:00:00 32.5 29 Nordeste 40 Nordeste 0 -- -- 36
2018-08-02 18:00:00 34.9 26 Nordeste 41 Nordeste 0 -- -- 29
2018-08-02 17:00:00 35.4 14 Norte 30 Noroeste 0 -- -- 19
2018-08-02 16:00:00 35 11 Norte 30 Noroeste 0 -- -- 24
2018-08-02 15:00:00 34.6 16 Oeste 29 Oeste 0 -- -- 23
2018-08-02 14:00:00 33.5 13 Noroeste 24 Oeste 0 -- -- 27
2018-08-02 13:00:00 31.6 5 Norte 26 Norte 0 -- -- 32
2018-08-02 12:00:00 31.1 11 Sudoeste 17 Sudoeste 0 -- -- 36
2018-08-02 11:00:00 29.1 6 Sudeste 12 Sudoeste 0 -- -- 45
2018-08-02 10:00:00 28.9 2 Sur 6 Sur 0 -- -- 46
2018-08-02 09:00:00 26 0 Calma 5 Norte 0 -- -- 53
2018-08-02 08:00:00 18.9 4 Norte 6 Norte 0 -- -- 73
2018-08-02 07:00:00 17.6 5 Este 13 Este 0 -- -- 76
2018-08-02 06:00:00 18.7 8 Este 14 Este 0 -- -- 70
2018-08-02 05:00:00 19.2 3 Nordeste 13 Este 0 -- -- 69
2018-08-02 04:00:00 18.8 4 Norte 10 Nordeste 0 -- -- 69
2018-08-02 03:00:00 19.5 4 Este 16 Nordeste 0 -- -- 67
2018-08-02 02:00:00 20.5 12 Nordeste 15 Nordeste 0 -- -- 71
2018-08-02 01:00:00 21.1 10 Norte 14 Norte 0 -- -- 68
2018-08-02 00:00:00 22.7 2 Norte 25 Nordeste 0 -- -- 53
2018-08-01 23:00:00 24.1 21 Nordeste 25 Nordeste 0 -- -- 50
2018-08-01 22:00:00 25.6 17 Nordeste 28 Este 0 -- -- 44
2018-08-01 21:00:00 28 18 Este 36 Este 0 -- -- 40
2018-08-01 20:00:00 30 26 Sudeste 38 Sudeste 0 -- -- 38
2018-08-01 19:00:00 32.3 21 Sudeste 35 Sudeste 0 -- -- 35
2018-08-01 18:00:00 34.8 12 Sur 25 Sudoeste 0 -- -- 25
2018-08-01 17:00:00 34.2 12 Oeste 30 Oeste 0 -- -- 25
2018-08-01 16:00:00 33.6 15 Sudoeste 27 Sudoeste 0 -- -- 24
2018-08-01 15:00:00 32.1 7 Oeste 17 Sudeste 0 -- -- 29
2018-08-01 14:00:00 31.2 8 Sudeste 19 Sudoeste 0 -- -- 34
2018-08-01 13:00:00 29.6 9 Sur 23 Sudoeste 0 -- -- 38
2018-08-01 12:00:00 29 7 Sur 18 Sudoeste 0 -- -- 40
2018-08-01 11:00:00 26.5 8 Sur 19 Sudeste 0 -- -- 50
2018-08-01 10:00:00 23.2 11 Sudeste 15 Sudeste 0 -- -- 59
2018-08-01 09:00:00 21.9 6 Este 12 Este 0 -- -- 65
2018-08-01 08:00:00 18.6 11 Este 14 Este 0 -- -- 76
2018-08-01 07:00:00 15.2 7 Este 18 Nordeste 0 -- -- 88
2018-08-01 06:00:00 16.1 14 Nordeste 16 Nordeste 0 -- -- 84
2018-08-01 05:00:00 17.6 6 Este 15 Este 0 -- -- 77
2018-08-01 04:00:00 17.7 14 Este 17 Este 0 -- -- 77
2018-08-01 03:00:00 17.4 8 Norte 17 Nordeste 0 -- -- 81
2018-08-01 02:00:00 18.4 17 Nordeste 22 Nordeste 0 -- -- 77
2018-08-01 01:00:00 18.9 13 Nordeste 18 Norte 0 -- -- 75
2018-08-01 00:00:00 20 16 Norte 28 Nordeste 0 -- -- 71
2018-07-31 23:00:00 21.6 23 Nordeste 30 Nordeste 0 -- -- 65
2018-07-31 22:00:00 23.2 22 Nordeste 31 Nordeste 0 -- -- 60
2018-07-31 21:00:00 25.4 23 Nordeste 35 Nordeste 0 -- -- 53
2018-07-31 20:00:00 29 27 Este 38 Este 0 -- -- 41
2018-07-31 19:00:00 31.8 18 Noroeste 33 Noroeste 0 -- -- 29
2018-07-31 18:00:00 33.2 7 Noroeste 23 Sur 0 -- -- 24
2018-07-31 17:00:00 32 10 Noroeste 32 Oeste 0 -- -- 26
2018-07-31 16:00:00 32.4 14 Sur 25 Sudoeste 0 -- -- 24
2018-07-31 15:00:00 30.7 12 Sur 32 Oeste 0 -- -- 28
2018-07-31 14:00:00 30.1 5 Este 25 Sur 0 -- -- 32
2018-07-31 13:00:00 29.1 8 Sudeste 19 Sudoeste 0 -- -- 38
2018-07-31 12:00:00 28.6 4 Sur 15 Nordeste 0 -- -- 41
2018-07-31 11:00:00 26.6 4 Nordeste 13 Oeste 0 -- -- 45
2018-07-31 10:00:00 23.4 6 Norte 10 Norte 0 -- -- 49
2018-07-31 09:00:00 20.3 5 Nordeste 10 Nordeste 0 -- -- 52
2018-07-31 08:00:00 17.2 6 Nordeste 9 Norte 0 -- -- 58
2018-07-31 07:00:00 14.9 5 Norte 14 Nordeste 0 -- -- 61
2018-07-31 06:00:00 16.1 9 Nordeste 15 Norte 0 -- -- 57
2018-07-31 05:00:00 17.3 12 Norte 15 Nordeste 0 -- -- 54
2018-07-31 04:00:00 18.4 12 Nordeste 16 Norte 0 -- -- 50
2018-07-31 03:00:00 19.3 9 Norte 17 Noroeste 0 -- -- 50
2018-07-31 02:00:00 19.6 6 Norte 14 Norte 0 -- -- 51
2018-07-31 01:00:00 21.1 4 Este 10 Noroeste 0 -- -- 44
2018-07-31 00:00:00 21.6 3 Sur 15 Sudeste 0 -- -- 33
2018-07-30 23:00:00 24.6 14 Este 24 Este 0 -- -- 27
2018-07-30 22:00:00 25.7 2 Noroeste 13 Noroeste 0 -- -- 25
2018-07-30 21:00:00 29.7 9 Noroeste 21 Oeste 0 -- -- 23
2018-07-30 20:00:00 32.4 10 Noroeste 20 Noroeste 0 -- -- 23
2018-07-30 19:00:00 33.5 7 Sudoeste 22 Noroeste 0 -- -- 23
2018-07-30 18:00:00 33.1 9 Oeste 24 Noroeste 0 -- -- 23
2018-07-30 17:00:00 31.8 7 Nordeste 28 Sur 0 -- -- 22
2018-07-30 16:00:00 32 17 Sur 32 Sur 0 -- -- 22
2018-07-30 15:00:00 30.8 10 Sudoeste 27 Sudoeste 0 -- -- 24
2018-07-30 14:00:00 30.6 6 Sudeste 19 Sudoeste 0 -- -- 27
2018-07-30 13:00:00 29 8 Sur 16 Sudoeste 0 -- -- 28
2018-07-30 12:00:00 27.1 8 Norte 15 Oeste 0 -- -- 30
2018-07-30 11:00:00 25.4 5 Norte 13 Norte 0 -- -- 36
2018-07-30 10:00:00 22.3 6 Norte 13 Nordeste 0 -- -- 41
2018-07-30 09:00:00 19.3 9 Nordeste 17 Norte 0 -- -- 44
2018-07-30 08:00:00 16.2 11 Norte 15 Norte 0 -- -- 50
2018-07-30 07:00:00 13.2 6 Nordeste 13 Norte 0 -- -- 58
2018-07-30 06:00:00 15.4 10 Norte 17 Norte 0 -- -- 49
2018-07-30 05:00:00 16.9 10 Norte 17 Norte 0 -- -- 43
2018-07-30 04:00:00 17.7 7 Norte 17 Norte 0 -- -- 46
2018-07-30 03:00:00 18.8 13 Norte 18 Norte 0 -- -- 51
2018-07-30 02:00:00 18.2 7 Norte 12 Noroeste 0 -- -- 63
2018-07-30 01:00:00 19 8 Norte 12 Nordeste 0 -- -- 56
2018-07-30 00:00:00 21.1 6 Norte 12 Norte 0 -- -- 48
2018-07-29 23:00:00 21.8 10 Norte 23 Nordeste 0 -- -- 40
2018-07-29 22:00:00 24 11 Norte 19 Noroeste 0 -- -- 36
2018-07-29 21:00:00 27.2 14 Norte 25 Norte 0 -- -- 32
2018-07-29 20:00:00 29.8 14 Noroeste 26 Noroeste 0 -- -- 27
2018-07-29 19:00:00 30.7 13 Noroeste 26 Noroeste 0 -- -- 26
2018-07-29 18:00:00 30.8 12 Noroeste 30 Noroeste 0 -- -- 27
2018-07-29 17:00:00 30.2 16 Noroeste 32 Sudoeste 0 -- -- 28
2018-07-29 16:00:00 30 14 Oeste 30 Noroeste 0 -- -- 26
2018-07-29 15:00:00 29.3 14 Oeste 32 Sudoeste 0 -- -- 27
2018-07-29 14:00:00 28.5 14 Sudoeste 39 Norte 0 -- -- 29
2018-07-29 13:00:00 27.3 18 Oeste 35 Sudoeste 0 -- -- 32
2018-07-29 12:00:00 26.3 9 Oeste 19 Oeste 0 -- -- 34
2018-07-29 11:00:00 24.4 12 Oeste 19 Noroeste 0 -- -- 40
2018-07-29 10:00:00 22 7 Noroeste 13 Noroeste 0 -- -- 56
2018-07-29 09:00:00 19.6 4 Norte 7 Noroeste 0 -- -- 65
2018-07-29 08:00:00 17 0 Calma 5 Norte 0 -- -- 70
2018-07-29 07:00:00 13.2 3 Noroeste 10 Nordeste 0 -- -- 85
2018-07-29 06:00:00 14.7 6 Nordeste 9 Norte 0 -- -- 80
2018-07-29 05:00:00 17.5 2 Sur 5 Nordeste 0 -- -- 68
2018-07-29 04:00:00 16.7 0 Calma 7 Sudeste 0 -- -- 73
2018-07-29 03:00:00 17.7 2 Sudeste 6 Sur 0 -- -- 70
2018-07-29 02:00:00 18.5 3 Sudeste 10 Noroeste 0 -- -- 68
2018-07-29 01:00:00 20.2 7 Sur 9 Sur 0 -- -- 62
2018-07-29 00:00:00 20 5 Sur 13 Sudeste 0 -- -- 62
2018-07-28 23:00:00 21.2 13 Sudeste 19 Sudeste 0 -- -- 60
2018-07-28 22:00:00 21.5 10 Nordeste 21 Nordeste 0 -- -- 59
2018-07-28 21:00:00 25.4 17 Nordeste 33 Nordeste 0 -- -- 48
2018-07-28 20:00:00 28.3 16 Nordeste 29 Nordeste 0 -- -- 40
2018-07-28 19:00:00 31 16 Sudoeste 32 Oeste 0 -- -- 23
2018-07-28 18:00:00 31.5 17 Sudoeste 31 Sudoeste 0 -- -- 22
2018-07-28 17:00:00 31.5 19 Sudoeste 33 Sudoeste 0 -- -- 21
2018-07-28 16:00:00 31.4 13 Sudoeste 33 Sudoeste 0 -- -- 25
2018-07-28 15:00:00 28.9 11 Noroeste 28 Sudoeste 0 -- -- 30
2018-07-28 14:00:00 27.9 10 Noroeste 35 Oeste 0 -- -- 29
2018-07-28 13:00:00 27.1 9 Oeste 18 Sudoeste 0 -- -- 31
2018-07-28 12:00:00 25.6 7 Noroeste 21 Noroeste 0 -- -- 34
2018-07-28 11:00:00 23.9 7 Norte 15 Noroeste 0 -- -- 41
2018-07-28 10:00:00 20.7 11 Noroeste 16 Noroeste 0 -- -- 48
2018-07-28 09:00:00 19.8 4 Noroeste 10 Norte 0 -- -- 49
2018-07-28 08:00:00 16.5 7 Nordeste 17 Norte 0 -- -- 57
2018-07-28 07:00:00 15.4 10 Norte 14 Norte 0 -- -- 59
2018-07-28 06:00:00 15.9 10 Norte 13 Norte 0 -- -- 57
2018-07-28 05:00:00 17.2 10 Norte 13 Norte 0 -- -- 54
2018-07-28 04:00:00 16.9 4 Norte 19 Norte 0 -- -- 54
2018-07-28 03:00:00 19.2 12 Norte 18 Norte 0 -- -- 47
2018-07-28 02:00:00 20.1 5 Nordeste 17 Noroeste 0 -- -- 42
2018-07-28 01:00:00 19.8 3 Este 17 Sur 0 -- -- 36
2018-07-28 00:00:00 22.4 7 Sur 14 Sur 0 -- -- 30
2018-07-27 23:00:00 23.8 3 Sur 11 Sur 0 -- -- 28
2018-07-27 22:00:00 25.1 8 Oeste 17 Oeste 0 -- -- 25
2018-07-27 21:00:00 27.4 13 Oeste 28 Sudoeste 0 -- -- 23
2018-07-27 20:00:00 29.7 26 Oeste 35 Oeste 0 -- -- 21
2018-07-27 19:00:00 30.3 24 Oeste 38 Oeste 0 -- -- 21
2018-07-27 18:00:00 30.6 26 Oeste 54 Oeste 0 -- -- 20
2018-07-27 17:00:00 31.4 31 Oeste 50 Oeste 0 -- -- 21
2018-07-27 16:00:00 31 32 Oeste 50 Noroeste 0 -- -- 23
2018-07-27 15:00:00 30.8 27 Oeste 46 Oeste 0 -- -- 25
2018-07-27 14:00:00 29.8 30 Oeste 57 Sudoeste 0 -- -- 24
2018-07-27 13:00:00 29.2 18 Sudoeste 35 Sudoeste 0 -- -- 30
2018-07-27 12:00:00 27.4 10 Sudoeste 22 Sudoeste 0 -- -- 38
2018-07-27 11:00:00 27.4 4 Sur 10 Sur 0 -- -- 43
2018-07-27 10:00:00 22.6 4 Sur 7 Sudeste 0 -- -- 58
2018-07-27 09:00:00 19.1 5 Nordeste 8 Nordeste 0 -- -- 75
2018-07-27 08:00:00 17.3 8 Nordeste 10 Nordeste 0 -- -- 79
2018-07-27 07:00:00 15.7 3 Norte 11 Este 0 -- -- 81
2018-07-27 06:00:00 16.8 6 Norte 9 Norte 0 -- -- 73
2018-07-27 05:00:00 18 6 Este 9 Este 0 -- -- 67
2018-07-27 04:00:00 17.6 3 Norte 10 Sudeste 0 -- -- 67
2018-07-27 03:00:00 20.2 5 Sudeste 15 Sudeste 0 -- -- 57
2018-07-27 02:00:00 21.8 5 Este 15 Nordeste 0 -- -- 50
2018-07-27 01:00:00 23.4 6 Sudeste 27 Sudeste 0 -- -- 45
2018-07-27 00:00:00 24.9 17 Sudeste 26 Sudeste 0 -- -- 43
2018-07-26 23:00:00 25.4 0 Calma 7 Sudoeste 0 -- -- 31
2018-07-26 22:00:00 26.4 4 Noroeste 15 Noroeste 0 -- -- 29
2018-07-26 21:00:00 29.5 13 Noroeste 23 Noroeste 0 -- -- 26
2018-07-26 20:00:00 31.6 15 Noroeste 28 Oeste 0 -- -- 25
2018-07-26 19:00:00 32.6 16 Oeste 33 Sudoeste 0 -- -- 23
2018-07-26 18:00:00 33.1 18 Sudoeste 35 Sudoeste 0 -- -- 22
2018-07-26 17:00:00 33.1 15 Oeste 36 Sudoeste 0 -- -- 21
2018-07-26 16:00:00 33 25 Sudoeste 38 Sudoeste 0 -- -- 22
2018-07-26 15:00:00 31.4 11 Oeste 29 Norte 0 -- -- 27
2018-07-26 14:00:00 31.7 10 Sur 24 Sur 0 -- -- 24
2018-07-26 13:00:00 31.4 7 Sur 17 Oeste 0 -- -- 28
2018-07-26 12:00:00 30.1 6 Sur 18 Sudoeste 0 -- -- 30
2018-07-26 11:00:00 27.8 8 Sur 13 Sudoeste 0 -- -- 37
2018-07-26 10:00:00 26.3 5 Sur 11 Sudeste 0 -- -- 43
2018-07-26 09:00:00 25.1 2 Sur 4 Sudeste 0 -- -- 54
2018-07-26 08:00:00 19.8 3 Este 9 Norte 0 -- -- 70
2018-07-26 07:00:00 16.8 7 Norte 9 Norte 0 -- -- 75
2018-07-26 06:00:00 18 2 Norte 12 Este 0 -- -- 70
2018-07-26 05:00:00 18.7 5 Norte 14 Noroeste 0 -- -- 68
2018-07-26 04:00:00 20.1 4 Sudeste 9 Sudeste 0 -- -- 62
2018-07-26 03:00:00 22.2 8 Sudeste 19 Sudeste 0 -- -- 55
2018-07-26 02:00:00 22 6 Sudeste 9 Sudeste 0 -- -- 56
2018-07-26 01:00:00 22.8 3 Sudoeste 13 Sur 0 -- -- 51
2018-07-26 00:00:00 23.2 4 Sudoeste 15 Sudeste 0 -- -- 49
2018-07-25 23:00:00 24.3 13 Sudeste 25 Sudeste 0 -- -- 46
2018-07-25 22:00:00 25.5 17 Sudeste 29 Sudeste 0 -- -- 43
2018-07-25 21:00:00 28.6 13 Sudeste 22 Sudeste 0 -- -- 37
2018-07-25 20:00:00 31.7 13 Oeste 24 Oeste 0 -- -- 21
2018-07-25 19:00:00 33 17 Sudoeste 25 Sudoeste 0 -- -- 19
2018-07-25 18:00:00 32.9 17 Sudoeste 33 Sudoeste 0 -- -- 20
2018-07-25 17:00:00 32.9 10 Sur 29 Sudoeste 0 -- -- 24
2018-07-25 16:00:00 31.5 21 Sur 34 Sur 0 -- -- 26
2018-07-25 15:00:00 30.8 14 Sur 33 Oeste 0 -- -- 25
2018-07-25 14:00:00 30 15 Sudoeste 31 Sudoeste 0 -- -- 26
2018-07-25 13:00:00 28.6 12 Sur 28 Sur 0 -- -- 40
2018-07-25 12:00:00 27.2 13 Sudoeste 24 Sur 0 -- -- 50
2018-07-25 11:00:00 25.1 10 Sudeste 18 Sur 0 -- -- 58
2018-07-25 10:00:00 23.4 6 Sudeste 12 Sudeste 0 -- -- 64
2018-07-25 09:00:00 21.6 5 Sudeste 8 Sudeste 0 -- -- 70
2018-07-25 08:00:00 16.5 7 Norte 10 Nordeste 0 -- -- 87
2018-07-25 07:00:00 15 6 Norte 9 Nordeste 0 -- -- 93
2018-07-25 06:00:00 15.6 0 Calma 10 Nordeste 0 -- -- 91
2018-07-25 05:00:00 16.2 5 Nordeste 13 Nordeste 0 -- -- 89
2018-07-25 04:00:00 17 12 Nordeste 15 Este 0 -- -- 87
2018-07-25 03:00:00 18.3 13 Este 20 Nordeste 0 -- -- 80
2018-07-25 02:00:00 18.3 19 Nordeste 22 Nordeste 0 -- -- 84
2018-07-25 01:00:00 18.7 9 Nordeste 13 Nordeste 0 -- -- 82
2018-07-25 00:00:00 19.5 9 Norte 13 Nordeste 0 -- -- 78
2018-07-24 23:00:00 21.5 12 Nordeste 30 Nordeste 0 -- -- 70
2018-07-24 22:00:00 -- 22 Nordeste 33 Este 0 -- -- --
2018-07-24 21:00:00 27.6 16 Nordeste 21 Nordeste 0 -- -- 40
2018-07-24 20:00:00 30.7 9 Norte 22 Norte 0 -- -- 26
2018-07-24 19:00:00 31.4 7 Norte 30 Noroeste 0 -- -- 25
2018-07-24 18:00:00 30.8 17 Noroeste 27 Noroeste 0 -- -- 25
2018-07-24 17:00:00 30.9 14 Noroeste 36 Noroeste 0 -- -- 24
2018-07-24 16:00:00 30.1 10 Norte 31 Noroeste 0 -- -- 27
2018-07-24 15:00:00 30.4 11 Oeste 31 Oeste 0 -- -- 27
2018-07-24 14:00:00 28.7 22 Oeste 34 Oeste 0 -- -- 29
2018-07-24 13:00:00 28.6 16 Oeste 28 Oeste 0 -- -- 30
2018-07-24 12:00:00 27.2 10 Noroeste 21 Oeste 0 -- -- 36
2018-07-24 11:00:00 26.4 7 Oeste 16 Norte 0 -- -- 36
2018-07-24 10:00:00 23.2 12 Norte 21 Norte 0 -- -- 43
2018-07-24 09:00:00 21.9 9 Noroeste 17 Norte 0 -- -- 45
2018-07-24 08:00:00 21.4 6 Noroeste 14 Oeste 0 -- -- 44
2018-07-24 07:00:00 18 6 Noroeste 14 Oeste 0 -- -- 59
2018-07-24 06:00:00 16.1 0 Calma 6 Sudeste 0 -- -- 74
2018-07-24 05:00:00 17 0 Calma 7 Norte 0 -- -- 71
2018-07-24 04:00:00 18.1 7 Nordeste 12 Nordeste 0 -- -- 70
2018-07-24 03:00:00 18.6 10 Nordeste 14 Nordeste 0 -- -- 68
2018-07-24 02:00:00 21.5 5 Este 17 Sur 0 -- -- 56
2018-07-24 01:00:00 23.2 13 Sudeste 26 Sudeste 0 -- -- 51
2018-07-24 00:00:00 22.6 9 Sudeste 24 Sudeste 0 -- -- 51
2018-07-23 23:00:00 22.6 16 Nordeste 21 Este 0 -- -- 48
2018-07-23 22:00:00 25.3 5 Oeste 13 Oeste 0 -- -- 35
2018-07-23 21:00:00 28.7 11 Sudoeste 22 Oeste 0 -- -- 30
2018-07-23 20:00:00 30.9 17 Sudoeste 49 Oeste 0 -- -- 28
2018-07-23 19:00:00 31.6 19 Sudoeste 31 Sudoeste 0 -- -- 28
2018-07-23 18:00:00 31.4 20 Oeste 33 Sudoeste 0 -- -- 27
2018-07-23 17:00:00 32.5 15 Sudoeste 36 Oeste 0 -- -- 27
2018-07-23 16:00:00 31.4 17 Sudoeste 33 Sudoeste 0 -- -- 29
2018-07-23 15:00:00 30.8 17 Sudoeste 43 Sudoeste 0 -- -- 30
2018-07-23 14:00:00 29.6 12 Sudoeste 25 Sudoeste 0 -- -- 40
2018-07-23 13:00:00 28.4 8 Sur 22 Sudoeste 0 -- -- 43
2018-07-23 12:00:00 26 8 Sudoeste 20 Sudoeste 0 -- -- 49
2018-07-23 11:00:00 24.5 6 Sur 17 Sur 0 -- -- 52
2018-07-23 10:00:00 21.8 8 Sur 13 Sur 0 -- -- 57
2018-07-23 09:00:00 18.5 3 Norte 9 Nordeste 0 -- -- 68
2018-07-23 08:00:00 14.2 5 Norte 9 Nordeste 0 -- -- 83
2018-07-23 07:00:00 12.6 7 Nordeste 10 Norte 0 -- -- 88
2018-07-23 06:00:00 12.2 0 Calma 4 Norte 0 -- -- 89
2018-07-23 05:00:00 12.9 0 Calma 5 Este 0 -- -- 86
2018-07-23 04:00:00 13.1 0 Calma 9 Norte 0 -- -- 87
2018-07-23 03:00:00 14.1 7 Nordeste 13 Nordeste 0 -- -- 83
2018-07-23 02:00:00 14.8 13 Nordeste 18 Nordeste 0 -- -- 81
2018-07-23 01:00:00 15.3 10 Nordeste 14 Nordeste 0 -- -- 79
2018-07-23 00:00:00 16.1 6 Nordeste 27 Nordeste 0 -- -- 75
2018-07-22 23:00:00 17.6 22 Nordeste 33 Nordeste 0 -- -- 69
2018-07-22 22:00:00 19.1 25 Nordeste 35 Nordeste 0 -- -- 63
2018-07-22 21:00:00 22.4 22 Nordeste 30 Nordeste 0 -- -- 49
2018-07-22 20:00:00 24.6 23 Nordeste 30 Nordeste 0 -- -- 43
2018-07-22 19:00:00 26.3 18 Nordeste 26 Este 0 -- -- 39
2018-07-22 18:00:00 26.9 12 Norte 21 Noroeste 0 -- -- 34
2018-07-22 17:00:00 25.9 12 Norte 28 Norte 0 -- -- 35
2018-07-22 16:00:00 25.5 12 Norte 24 Nordeste 0 -- -- 36
2018-07-22 15:00:00 24.6 12 Nordeste 24 Nordeste 0 -- -- 39
2018-07-22 14:00:00 24.3 7 Este 17 Oeste 0 -- -- 41
2018-07-22 13:00:00 23.8 6 Sur 15 Sudoeste 0 -- -- 44
2018-07-22 12:00:00 22.2 7 Sudeste 17 Este 0 -- -- 49
2018-07-22 11:00:00 21.1 4 Nordeste 15 Nordeste 0 -- -- 56
2018-07-22 10:00:00 18.4 5 Sudeste 18 Sudeste 0 -- -- 64
2018-07-22 09:00:00 16.4 9 Sudeste 12 Sudeste 0 -- -- 71
2018-07-22 08:00:00 14.7 5 Este 15 Nordeste 0 -- -- 77
2018-07-22 07:00:00 11.6 7 Nordeste 15 Nordeste 0 -- -- 89
2018-07-22 06:00:00 12.2 13 Este 18 Este 0 -- -- 88
2018-07-22 05:00:00 13.5 10 Este 22 Sudeste 0 -- -- 85
2018-07-22 04:00:00 14 13 Sudeste 19 Este 0 -- -- 84
2018-07-22 03:00:00 14.3 9 Sudeste 24 Sudeste 0 -- -- 84
2018-07-22 02:00:00 15.1 15 Sudeste 23 Sudeste 0 -- -- 80
2018-07-22 01:00:00 15.8 4 Sudeste 15 Sur 0 -- -- 74
2018-07-22 00:00:00 16 9 Sudeste 21 Este 0 -- -- 70
2018-07-21 23:00:00 16.1 13 Nordeste 20 Nordeste 0 -- -- 70
2018-07-21 22:00:00 16.9 14 Nordeste 24 Nordeste 0 -- -- 67
2018-07-21 21:00:00 17.6 17 Nordeste 23 Nordeste 0 -- -- 64
2018-07-21 20:00:00 18.5 18 Nordeste 24 Nordeste 0 -- -- 61
2018-07-21 19:00:00 20.8 15 Norte 27 Noroeste 0 -- -- 50
2018-07-21 18:00:00 20.8 18 Norte 26 Noroeste 0 -- -- 51
2018-07-21 17:00:00 21.4 13 Noroeste 26 Noroeste 0 -- -- 50
2018-07-21 16:00:00 22 10 Noroeste 26 Norte 0 -- -- 48
2018-07-21 15:00:00 20.5 13 Norte 25 Noroeste 0 -- -- 54
2018-07-21 14:00:00 22 12 Oeste 25 Oeste 0 -- -- 49
2018-07-21 13:00:00 20.4 8 Noroeste 24 Norte 0 -- -- 54
2018-07-21 12:00:00 19.1 8 Norte 18 Nordeste 0 -- -- 56
2018-07-21 11:00:00 18.9 7 Nordeste 21 Norte 0 -- -- 59
2018-07-21 10:00:00 15.7 15 Nordeste 25 Nordeste 0 -- -- 69
2018-07-21 09:00:00 14.3 13 Nordeste 19 Nordeste 0 -- -- 77
2018-07-21 08:00:00 12.8 8 Nordeste 15 Norte 0 -- -- 84
2018-07-21 07:00:00 11.1 13 Nordeste 18 Nordeste 0 -- -- 91
2018-07-21 06:00:00 11.4 6 Norte 24 Este 0 -- -- 92
2018-07-21 05:00:00 11.5 11 Nordeste 19 Nordeste 0 -- -- 94
2018-07-21 04:00:00 12 13 Nordeste 22 Nordeste 0 -- -- 93
2018-07-21 03:00:00 12.4 18 Nordeste 25 Nordeste 0 -- -- 91
2018-07-21 02:00:00 13.2 15 Nordeste 30 Nordeste 0 -- -- 91
2018-07-21 01:00:00 13.2 17 Nordeste 32 Nordeste 0 -- -- 91
2018-07-21 00:00:00 14 24 Nordeste 33 Nordeste 0 -- -- 90
2018-07-20 23:00:00 14.1 23 Nordeste 35 Norte 0 -- -- 88
2018-07-20 22:00:00 15.5 20 Nordeste 30 Nordeste 0 -- -- 77
2018-07-20 21:00:00 14.8 21 Nordeste 58 Nordeste 0.6 -- -- 82
2018-07-20 20:00:00 15.2 35 Nordeste 63 Nordeste 0 -- -- 84
2018-07-20 19:00:00 16.2 44 Nordeste 64 Nordeste 0 -- -- 82
2018-07-20 18:00:00 18.7 39 Nordeste 55 Nordeste 0 -- -- 73
2018-07-20 17:00:00 20.9 42 Nordeste 54 Nordeste 0 -- -- 63
2018-07-20 16:00:00 27.4 9 Sudoeste 25 Sudoeste 0 -- -- 36
2018-07-20 15:00:00 25.9 7 Este 19 Nordeste 0 -- -- 41
2018-07-20 14:00:00 23.4 10 Nordeste 25 Nordeste 0 -- -- 49
2018-07-20 13:00:00 23 15 Nordeste 25 Nordeste 0 -- -- 55
2018-07-20 12:00:00 22.3 18 Nordeste 28 Nordeste 0 -- -- 58
2018-07-20 11:00:00 20.8 18 Nordeste 28 Nordeste 0 -- -- 65
2018-07-20 10:00:00 20.8 12 Nordeste 17 Nordeste 0 -- -- 67
2018-07-20 09:00:00 18.8 9 Nordeste 14 Este 0 -- -- 75
2018-07-20 08:00:00 16.6 4 Nordeste 10 Nordeste 0 -- -- 86
2018-07-20 07:00:00 14.4 3 Norte 14 Nordeste 0 -- -- 93
2018-07-20 06:00:00 14.6 9 Nordeste 15 Nordeste 0 -- -- 94
2018-07-20 05:00:00 15.2 5 Nordeste 19 Nordeste 0 -- -- 91
2018-07-20 04:00:00 15.9 9 Nordeste 14 Nordeste 0 -- -- 89
2018-07-20 03:00:00 16.4 10 Nordeste 23 Nordeste 0 -- -- 87
2018-07-20 02:00:00 16.9 8 Nordeste 26 Nordeste 0 -- -- 83
2018-07-20 01:00:00 17.6 18 Nordeste 30 Nordeste 0 -- -- 83
2018-07-20 00:00:00 19 12 Nordeste 31 Nordeste 0 -- -- 74